sensor_id;sensor_type;location;lat;lon;timestamp;P1;durP1;ratioP1;P2;durP2;ratioP2
22144;SDS011;11238;48.730;11.566;2023-04-05T00:01:49;9.07;;;5.60;;
22144;SDS011;11238;48.730;11.566;2023-04-05T00:04:15;10.27;;;5.97;;
22144;SDS011;11238;48.730;11.566;2023-04-05T00:06:47;8.40;;;5.97;;
22144;SDS011;11238;48.730;11.566;2023-04-05T00:09:17;6.70;;;5.63;;
22144;SDS011;11238;48.730;11.566;2023-04-05T00:11:45;11.40;;;6.55;;
22144;SDS011;11238;48.730;11.566;2023-04-05T00:14:11;9.85;;;6.30;;
22144;SDS011;11238;48.730;11.566;2023-04-05T00:16:37;10.85;;;6.10;;
22144;SDS011;11238;48.730;11.566;2023-04-05T00:19:03;9.77;;;6.78;;
22144;SDS011;11238;48.730;11.566;2023-04-05T00:21:29;10.57;;;6.43;;
22144;SDS011;11238;48.730;11.566;2023-04-05T00:23:56;10.55;;;5.60;;
22144;SDS011;11238;48.730;11.566;2023-04-05T00:26:22;10.02;;;6.50;;
22144;SDS011;11238;48.730;11.566;2023-04-05T00:28:53;11.10;;;6.38;;
22144;SDS011;11238;48.730;11.566;2023-04-05T00:31:19;9.95;;;6.40;;
22144;SDS011;11238;48.730;11.566;2023-04-05T00:33:45;8.20;;;5.85;;
22144;SDS011;11238;48.730;11.566;2023-04-05T00:36:15;9.93;;;6.00;;
22144;SDS011;11238;48.730;11.566;2023-04-05T00:38:44;8.95;;;6.07;;
22144;SDS011;11238;48.730;11.566;2023-04-05T00:41:11;10.38;;;6.82;;
22144;SDS011;11238;48.730;11.566;2023-04-05T00:43:37;9.18;;;6.18;;
22144;SDS011;11238;48.730;11.566;2023-04-05T00:46:04;8.80;;;6.07;;
22144;SDS011;11238;48.730;11.566;2023-04-05T00:48:31;10.80;;;5.70;;
22144;SDS011;11238;48.730;11.566;2023-04-05T00:50:58;9.55;;;6.00;;
22144;SDS011;11238;48.730;11.566;2023-04-05T00:53:24;10.20;;;6.22;;
22144;SDS011;11238;48.730;11.566;2023-04-05T00:55:53;9.35;;;6.35;;
22144;SDS011;11238;48.730;11.566;2023-04-05T00:58:20;11.45;;;6.20;;
22144;SDS011;11238;48.730;11.566;2023-04-05T01:00:57;9.80;;;6.13;;
22144;SDS011;11238;48.730;11.566;2023-04-05T01:03:27;8.70;;;5.63;;
22144;SDS011;11238;48.730;11.566;2023-04-05T01:06:21;8.55;;;5.50;;
22144;SDS011;11238;48.730;11.566;2023-04-05T01:08:59;8.88;;;5.93;;
22144;SDS011;11238;48.730;11.566;2023-04-05T01:11:31;9.05;;;6.40;;
22144;SDS011;11238;48.730;11.566;2023-04-05T01:13:59;8.32;;;6.20;;
22144;SDS011;11238;48.730;11.566;2023-04-05T01:16:26;8.63;;;5.38;;
22144;SDS011;11238;48.730;11.566;2023-04-05T01:18:53;11.98;;;6.50;;
22144;SDS011;11238;48.730;11.566;2023-04-05T01:24:19;12.20;;;5.82;;
22144;SDS011;11238;48.730;11.566;2023-04-05T01:29:49;7.93;;;5.80;;
22144;SDS011;11238;48.730;11.566;2023-04-05T01:35:00;8.98;;;5.80;;
22144;SDS011;11238;48.730;11.566;2023-04-05T01:37:35;8.20;;;5.53;;
22144;SDS011;11238;48.730;11.566;2023-04-05T01:40:04;10.27;;;6.03;;
22144;SDS011;11238;48.730;11.566;2023-04-05T01:42:30;9.15;;;6.13;;
22144;SDS011;11238;48.730;11.566;2023-04-05T01:44:57;8.23;;;6.07;;
22144;SDS011;11238;48.730;11.566;2023-04-05T01:47:23;8.43;;;6.20;;
22144;SDS011;11238;48.730;11.566;2023-04-05T01:49:49;8.95;;;6.13;;
22144;SDS011;11238;48.730;11.566;2023-04-05T01:52:15;10.60;;;5.90;;
22144;SDS011;11238;48.730;11.566;2023-04-05T01:54:42;10.50;;;6.30;;
22144;SDS011;11238;48.730;11.566;2023-04-05T01:57:07;8.20;;;5.82;;
22144;SDS011;11238;48.730;11.566;2023-04-05T01:59:33;11.10;;;6.28;;
22144;SDS011;11238;48.730;11.566;2023-04-05T02:02:00;8.77;;;6.38;;
22144;SDS011;11238;48.730;11.566;2023-04-05T02:04:26;8.77;;;6.07;;
22144;SDS011;11238;48.730;11.566;2023-04-05T02:06:52;10.27;;;6.50;;
22144;SDS011;11238;48.730;11.566;2023-04-05T02:09:18;9.20;;;6.00;;
22144;SDS011;11238;48.730;11.566;2023-04-05T02:11:44;10.57;;;6.32;;
22144;SDS011;11238;48.730;11.566;2023-04-05T02:14:10;8.60;;;6.43;;
22144;SDS011;11238;48.730;11.566;2023-04-05T02:16:36;9.02;;;6.55;;
22144;SDS011;11238;48.730;11.566;2023-04-05T02:19:03;9.95;;;6.28;;
22144;SDS011;11238;48.730;11.566;2023-04-05T02:21:30;9.73;;;6.95;;
22144;SDS011;11238;48.730;11.566;2023-04-05T02:24:16;11.35;;;6.80;;
22144;SDS011;11238;48.730;11.566;2023-04-05T02:26:46;15.73;;;7.45;;
22144;SDS011;11238;48.730;11.566;2023-04-05T02:29:12;8.73;;;6.72;;
22144;SDS011;11238;48.730;11.566;2023-04-05T02:31:38;9.32;;;7.20;;
22144;SDS011;11238;48.730;11.566;2023-04-05T02:34:05;13.57;;;7.70;;
22144;SDS011;11238;48.730;11.566;2023-04-05T02:36:33;11.18;;;7.57;;
22144;SDS011;11238;48.730;11.566;2023-04-05T02:39:02;12.20;;;8.27;;
22144;SDS011;11238;48.730;11.566;2023-04-05T02:41:29;12.30;;;7.53;;
22144;SDS011;11238;48.730;11.566;2023-04-05T02:43:54;13.80;;;7.90;;
22144;SDS011;11238;48.730;11.566;2023-04-05T02:46:20;11.40;;;8.02;;
22144;SDS011;11238;48.730;11.566;2023-04-05T02:48:46;11.70;;;7.68;;
22144;SDS011;11238;48.730;11.566;2023-04-05T02:51:14;13.15;;;8.20;;
22144;SDS011;11238;48.730;11.566;2023-04-05T02:53:40;12.90;;;7.88;;
22144;SDS011;11238;48.730;11.566;2023-04-05T02:56:09;9.55;;;7.43;;
22144;SDS011;11238;48.730;11.566;2023-04-05T02:58:41;11.07;;;7.82;;
22144;SDS011;11238;48.730;11.566;2023-04-05T03:01:08;12.23;;;7.95;;
22144;SDS011;11238;48.730;11.566;2023-04-05T03:03:34;14.93;;;7.65;;
22144;SDS011;11238;48.730;11.566;2023-04-05T03:06:02;11.90;;;7.78;;
22144;SDS011;11238;48.730;11.566;2023-04-05T03:08:38;14.82;;;8.40;;
22144;SDS011;11238;48.730;11.566;2023-04-05T03:11:11;11.30;;;8.25;;
22144;SDS011;11238;48.730;11.566;2023-04-05T03:13:40;12.85;;;7.68;;
22144;SDS011;11238;48.730;11.566;2023-04-05T03:16:13;12.30;;;7.78;;
22144;SDS011;11238;48.730;11.566;2023-04-05T03:18:40;12.52;;;7.60;;
22144;SDS011;11238;48.730;11.566;2023-04-05T03:21:08;12.07;;;7.72;;
22144;SDS011;11238;48.730;11.566;2023-04-05T03:23:49;12.77;;;7.35;;
22144;SDS011;11238;48.730;11.566;2023-04-05T03:26:19;12.85;;;7.97;;
22144;SDS011;11238;48.730;11.566;2023-04-05T03:28:49;10.88;;;8.13;;
22144;SDS011;11238;48.730;11.566;2023-04-05T03:31:16;10.98;;;7.57;;
22144;SDS011;11238;48.730;11.566;2023-04-05T03:33:42;12.50;;;7.82;;
22144;SDS011;11238;48.730;11.566;2023-04-05T03:36:30;10.93;;;7.70;;
22144;SDS011;11238;48.730;11.566;2023-04-05T03:39:10;11.57;;;7.97;;
22144;SDS011;11238;48.730;11.566;2023-04-05T03:41:37;9.95;;;7.32;;
22144;SDS011;11238;48.730;11.566;2023-04-05T03:44:04;13.70;;;8.00;;
22144;SDS011;11238;48.730;11.566;2023-04-05T03:46:31;12.30;;;8.10;;
22144;SDS011;11238;48.730;11.566;2023-04-05T03:48:58;10.40;;;7.35;;
22144;SDS011;11238;48.730;11.566;2023-04-05T03:51:24;14.23;;;8.15;;
22144;SDS011;11238;48.730;11.566;2023-04-05T03:53:50;11.50;;;7.80;;
22144;SDS011;11238;48.730;11.566;2023-04-05T03:56:16;12.68;;;8.13;;
22144;SDS011;11238;48.730;11.566;2023-04-05T03:58:47;12.55;;;8.23;;
22144;SDS011;11238;48.730;11.566;2023-04-05T04:01:34;12.20;;;7.70;;
22144;SDS011;11238;48.730;11.566;2023-04-05T04:04:02;13.65;;;7.60;;
22144;SDS011;11238;48.730;11.566;2023-04-05T04:06:29;12.15;;;7.55;;
22144;SDS011;11238;48.730;11.566;2023-04-05T04:08:55;12.18;;;6.97;;
22144;SDS011;11238;48.730;11.566;2023-04-05T04:11:21;15.13;;;8.07;;
22144;SDS011;11238;48.730;11.566;2023-04-05T04:13:47;12.38;;;7.93;;
22144;SDS011;11238;48.730;11.566;2023-04-05T04:16:43;15.07;;;7.82;;
22144;SDS011;11238;48.730;11.566;2023-04-05T04:19:42;11.48;;;7.50;;
22144;SDS011;11238;48.730;11.566;2023-04-05T04:22:34;10.88;;;7.75;;
22144;SDS011;11238;48.730;11.566;2023-04-05T04:25:26;10.30;;;7.78;;
22144;SDS011;11238;48.730;11.566;2023-04-05T04:28:02;12.27;;;7.88;;
22144;SDS011;11238;48.730;11.566;2023-04-05T04:30:50;12.52;;;7.88;;
22144;SDS011;11238;48.730;11.566;2023-04-05T04:33:31;13.18;;;7.70;;
22144;SDS011;11238;48.730;11.566;2023-04-05T04:36:19;15.35;;;7.88;;
22144;SDS011;11238;48.730;11.566;2023-04-05T04:39:20;11.85;;;8.23;;
22144;SDS011;11238;48.730;11.566;2023-04-05T04:42:09;16.63;;;8.15;;
22144;SDS011;11238;48.730;11.566;2023-04-05T04:44:58;16.27;;;8.50;;
22144;SDS011;11238;48.730;11.566;2023-04-05T04:47:46;11.50;;;7.80;;
22144;SDS011;11238;48.730;11.566;2023-04-05T04:50:35;13.02;;;7.40;;
22144;SDS011;11238;48.730;11.566;2023-04-05T04:53:03;11.85;;;7.20;;
22144;SDS011;11238;48.730;11.566;2023-04-05T04:55:29;16.98;;;8.32;;
22144;SDS011;11238;48.730;11.566;2023-04-05T04:57:58;11.43;;;7.50;;
22144;SDS011;11238;48.730;11.566;2023-04-05T05:00:24;13.90;;;7.97;;
22144;SDS011;11238;48.730;11.566;2023-04-05T05:02:52;13.50;;;7.28;;
22144;SDS011;11238;48.730;11.566;2023-04-05T05:05:18;10.80;;;7.03;;
22144;SDS011;11238;48.730;11.566;2023-04-05T05:07:47;13.25;;;7.43;;
22144;SDS011;11238;48.730;11.566;2023-04-05T05:10:14;9.80;;;6.93;;
22144;SDS011;11238;48.730;11.566;2023-04-05T05:12:43;18.88;;;7.68;;
22144;SDS011;11238;48.730;11.566;2023-04-05T05:15:12;15.45;;;7.63;;
22144;SDS011;11238;48.730;11.566;2023-04-05T05:17:37;11.32;;;7.05;;
22144;SDS011;11238;48.730;11.566;2023-04-05T05:20:06;12.38;;;7.40;;
22144;SDS011;11238;48.730;11.566;2023-04-05T05:22:34;10.55;;;7.45;;
22144;SDS011;11238;48.730;11.566;2023-04-05T05:25:04;13.15;;;7.65;;
22144;SDS011;11238;48.730;11.566;2023-04-05T05:27:32;12.40;;;7.10;;
22144;SDS011;11238;48.730;11.566;2023-04-05T05:29:58;14.23;;;7.72;;
22144;SDS011;11238;48.730;11.566;2023-04-05T05:32:24;10.55;;;8.05;;
22144;SDS011;11238;48.730;11.566;2023-04-05T05:34:50;16.05;;;8.10;;
22144;SDS011;11238;48.730;11.566;2023-04-05T05:37:16;10.48;;;7.13;;
22144;SDS011;11238;48.730;11.566;2023-04-05T05:39:42;12.07;;;7.20;;
22144;SDS011;11238;48.730;11.566;2023-04-05T05:42:12;16.70;;;7.53;;
22144;SDS011;11238;48.730;11.566;2023-04-05T05:44:38;13.00;;;7.55;;
22144;SDS011;11238;48.730;11.566;2023-04-05T05:47:04;17.02;;;8.05;;
22144;SDS011;11238;48.730;11.566;2023-04-05T05:49:31;14.80;;;7.78;;
22144;SDS011;11238;48.730;11.566;2023-04-05T05:51:56;14.35;;;8.52;;
22144;SDS011;11238;48.730;11.566;2023-04-05T05:54:22;16.70;;;9.15;;
22144;SDS011;11238;48.730;11.566;2023-04-05T05:56:49;15.65;;;8.95;;
22144;SDS011;11238;48.730;11.566;2023-04-05T05:59:16;15.63;;;7.60;;
22144;SDS011;11238;48.730;11.566;2023-04-05T06:01:43;10.73;;;6.80;;
22144;SDS011;11238;48.730;11.566;2023-04-05T06:04:10;10.27;;;6.72;;
22144;SDS011;11238;48.730;11.566;2023-04-05T06:06:59;8.30;;;6.35;;
22144;SDS011;11238;48.730;11.566;2023-04-05T06:09:26;12.32;;;7.20;;
22144;SDS011;11238;48.730;11.566;2023-04-05T06:11:52;11.27;;;6.80;;
22144;SDS011;11238;48.730;11.566;2023-04-05T06:14:19;9.20;;;6.47;;
22144;SDS011;11238;48.730;11.566;2023-04-05T06:16:45;10.32;;;6.32;;
22144;SDS011;11238;48.730;11.566;2023-04-05T06:19:12;11.93;;;6.82;;
22144;SDS011;11238;48.730;11.566;2023-04-05T06:21:41;11.93;;;6.78;;
22144;SDS011;11238;48.730;11.566;2023-04-05T06:24:07;13.55;;;6.78;;
22144;SDS011;11238;48.730;11.566;2023-04-05T06:26:33;10.27;;;6.22;;
22144;SDS011;11238;48.730;11.566;2023-04-05T06:28:59;13.85;;;6.88;;
22144;SDS011;11238;48.730;11.566;2023-04-05T06:31:26;10.20;;;6.70;;
22144;SDS011;11238;48.730;11.566;2023-04-05T06:33:56;10.85;;;6.95;;
22144;SDS011;11238;48.730;11.566;2023-04-05T06:36:21;10.20;;;6.05;;
22144;SDS011;11238;48.730;11.566;2023-04-05T06:38:48;10.70;;;6.38;;
22144;SDS011;11238;48.730;11.566;2023-04-05T06:41:14;14.73;;;6.60;;
22144;SDS011;11238;48.730;11.566;2023-04-05T06:43:40;10.13;;;6.05;;
22144;SDS011;11238;48.730;11.566;2023-04-05T06:46:10;8.80;;;6.28;;
22144;SDS011;11238;48.730;11.566;2023-04-05T06:48:56;10.07;;;6.63;;
22144;SDS011;11238;48.730;11.566;2023-04-05T06:51:26;11.00;;;6.40;;
22144;SDS011;11238;48.730;11.566;2023-04-05T06:53:59;8.50;;;6.10;;
22144;SDS011;11238;48.730;11.566;2023-04-05T06:56:25;11.32;;;6.30;;
22144;SDS011;11238;48.730;11.566;2023-04-05T06:58:51;8.18;;;5.82;;
22144;SDS011;11238;48.730;11.566;2023-04-05T07:01:17;12.82;;;6.07;;
22144;SDS011;11238;48.730;11.566;2023-04-05T07:03:43;8.77;;;5.88;;
22144;SDS011;11238;48.730;11.566;2023-04-05T07:06:08;10.40;;;5.95;;
22144;SDS011;11238;48.730;11.566;2023-04-05T07:08:35;12.98;;;5.85;;
22144;SDS011;11238;48.730;11.566;2023-04-05T07:11:02;8.25;;;5.82;;
22144;SDS011;11238;48.730;11.566;2023-04-05T07:13:28;12.93;;;6.47;;
22144;SDS011;11238;48.730;11.566;2023-04-05T07:16:16;9.10;;;6.22;;
22144;SDS011;11238;48.730;11.566;2023-04-05T07:18:43;13.10;;;6.03;;
22144;SDS011;11238;48.730;11.566;2023-04-05T07:21:10;11.70;;;6.20;;
22144;SDS011;11238;48.730;11.566;2023-04-05T07:23:36;10.02;;;5.45;;
22144;SDS011;11238;48.730;11.566;2023-04-05T07:26:02;11.40;;;6.07;;
22144;SDS011;11238;48.730;11.566;2023-04-05T07:28:36;10.63;;;5.60;;
22144;SDS011;11238;48.730;11.566;2023-04-05T07:31:03;8.55;;;5.78;;
22144;SDS011;11238;48.730;11.566;2023-04-05T07:33:30;10.32;;;5.50;;
22144;SDS011;11238;48.730;11.566;2023-04-05T07:35:57;7.55;;;5.38;;
22144;SDS011;11238;48.730;11.566;2023-04-05T07:38:38;8.98;;;5.85;;
22144;SDS011;11238;48.730;11.566;2023-04-05T07:43:38;7.65;;;5.22;;
22144;SDS011;11238;48.730;11.566;2023-04-05T07:46:30;6.32;;;4.03;;
22144;SDS011;11238;48.730;11.566;2023-04-05T07:48:59;9.80;;;4.95;;
22144;SDS011;11238;48.730;11.566;2023-04-05T07:51:25;6.53;;;4.70;;
22144;SDS011;11238;48.730;11.566;2023-04-05T07:53:51;6.97;;;4.05;;
22144;SDS011;11238;48.730;11.566;2023-04-05T07:56:17;5.65;;;3.95;;
22144;SDS011;11238;48.730;11.566;2023-04-05T07:58:43;8.32;;;5.28;;
22144;SDS011;11238;48.730;11.566;2023-04-05T08:01:09;8.30;;;4.18;;
22144;SDS011;11238;48.730;11.566;2023-04-05T08:03:35;5.78;;;4.40;;
22144;SDS011;11238;48.730;11.566;2023-04-05T08:06:08;6.32;;;3.90;;
22144;SDS011;11238;48.730;11.566;2023-04-05T08:08:35;6.18;;;3.38;;
22144;SDS011;11238;48.730;11.566;2023-04-05T08:11:02;5.38;;;3.75;;
22144;SDS011;11238;48.730;11.566;2023-04-05T08:13:28;7.25;;;3.95;;
22144;SDS011;11238;48.730;11.566;2023-04-05T08:15:58;4.57;;;3.33;;
22144;SDS011;11238;48.730;11.566;2023-04-05T08:18:25;6.63;;;3.72;;
22144;SDS011;11238;48.730;11.566;2023-04-05T08:20:52;6.18;;;3.53;;
22144;SDS011;11238;48.730;11.566;2023-04-05T08:23:19;4.88;;;3.67;;
22144;SDS011;11238;48.730;11.566;2023-04-05T08:25:46;8.43;;;3.90;;
22144;SDS011;11238;48.730;11.566;2023-04-05T08:28:12;5.28;;;3.83;;
22144;SDS011;11238;48.730;11.566;2023-04-05T08:30:39;5.95;;;3.75;;
22144;SDS011;11238;48.730;11.566;2023-04-05T08:33:13;7.03;;;4.03;;
22144;SDS011;11238;48.730;11.566;2023-04-05T08:36:07;6.72;;;3.60;;
22144;SDS011;11238;48.730;11.566;2023-04-05T08:38:35;7.78;;;3.50;;
22144;SDS011;11238;48.730;11.566;2023-04-05T08:41:18;5.30;;;3.67;;
22144;SDS011;11238;48.730;11.566;2023-04-05T08:44:09;6.75;;;3.58;;
22144;SDS011;11238;48.730;11.566;2023-04-05T08:46:35;6.75;;;3.55;;
22144;SDS011;11238;48.730;11.566;2023-04-05T08:49:05;7.68;;;3.95;;
22144;SDS011;11238;48.730;11.566;2023-04-05T08:51:33;5.75;;;3.80;;
22144;SDS011;11238;48.730;11.566;2023-04-05T08:54:01;6.97;;;3.70;;
22144;SDS011;11238;48.730;11.566;2023-04-05T08:56:32;7.32;;;3.70;;
22144;SDS011;11238;48.730;11.566;2023-04-05T08:59:04;5.40;;;3.67;;
22144;SDS011;11238;48.730;11.566;2023-04-05T09:01:40;5.80;;;3.67;;
22144;SDS011;11238;48.730;11.566;2023-04-05T09:04:13;5.93;;;3.65;;
22144;SDS011;11238;48.730;11.566;2023-04-05T09:07:07;6.00;;;3.85;;
22144;SDS011;11238;48.730;11.566;2023-04-05T09:09:35;5.10;;;3.80;;
22144;SDS011;11238;48.730;11.566;2023-04-05T09:12:05;6.70;;;3.47;;
22144;SDS011;11238;48.730;11.566;2023-04-05T09:14:33;5.20;;;3.60;;
22144;SDS011;11238;48.730;11.566;2023-04-05T09:17:03;5.45;;;3.85;;
22144;SDS011;11238;48.730;11.566;2023-04-05T09:19:43;6.90;;;3.35;;
22144;SDS011;11238;48.730;11.566;2023-04-05T09:22:10;5.70;;;3.22;;
22144;SDS011;11238;48.730;11.566;2023-04-05T09:24:39;6.32;;;3.63;;
22144;SDS011;11238;48.730;11.566;2023-04-05T09:27:15;6.25;;;3.40;;
22144;SDS011;11238;48.730;11.566;2023-04-05T09:29:46;6.28;;;3.60;;
22144;SDS011;11238;48.730;11.566;2023-04-05T09:32:14;6.57;;;3.42;;
22144;SDS011;11238;48.730;11.566;2023-04-05T09:34:42;4.90;;;3.45;;
22144;SDS011;11238;48.730;11.566;2023-04-05T09:37:19;4.15;;;2.85;;
22144;SDS011;11238;48.730;11.566;2023-04-05T09:39:47;4.40;;;3.58;;
22144;SDS011;11238;48.730;11.566;2023-04-05T09:42:15;6.18;;;3.35;;
22144;SDS011;11238;48.730;11.566;2023-04-05T09:44:58;4.95;;;3.20;;
22144;SDS011;11238;48.730;11.566;2023-04-05T09:47:36;4.55;;;3.45;;
22144;SDS011;11238;48.730;11.566;2023-04-05T09:50:23;5.32;;;3.60;;
22144;SDS011;11238;48.730;11.566;2023-04-05T09:53:09;8.73;;;3.35;;
22144;SDS011;11238;48.730;11.566;2023-04-05T09:56:08;5.15;;;3.70;;
22144;SDS011;11238;48.730;11.566;2023-04-05T09:58:38;4.75;;;3.75;;
22144;SDS011;11238;48.730;11.566;2023-04-05T10:01:04;5.15;;;3.30;;
22144;SDS011;11238;48.730;11.566;2023-04-05T10:03:31;6.85;;;3.88;;
22144;SDS011;11238;48.730;11.566;2023-04-05T10:06:01;5.85;;;3.90;;
22144;SDS011;11238;48.730;11.566;2023-04-05T10:08:27;7.00;;;3.40;;
22144;SDS011;11238;48.730;11.566;2023-04-05T10:10:53;5.10;;;3.75;;
22144;SDS011;11238;48.730;11.566;2023-04-05T10:13:20;14.35;;;3.97;;
22144;SDS011;11238;48.730;11.566;2023-04-05T10:15:47;6.00;;;3.72;;
22144;SDS011;11238;48.730;11.566;2023-04-05T10:18:20;7.82;;;3.70;;
22144;SDS011;11238;48.730;11.566;2023-04-05T10:20:52;6.72;;;4.32;;
22144;SDS011;11238;48.730;11.566;2023-04-05T10:23:23;5.20;;;3.90;;
22144;SDS011;11238;48.730;11.566;2023-04-05T10:28:42;4.53;;;3.45;;
22144;SDS011;11238;48.730;11.566;2023-04-05T10:31:18;4.88;;;3.60;;
22144;SDS011;11238;48.730;11.566;2023-04-05T10:33:55;5.47;;;3.92;;
22144;SDS011;11238;48.730;11.566;2023-04-05T10:39:27;7.43;;;3.72;;
22144;SDS011;11238;48.730;11.566;2023-04-05T10:41:59;5.22;;;3.85;;
22144;SDS011;11238;48.730;11.566;2023-04-05T10:44:30;6.60;;;4.05;;
22144;SDS011;11238;48.730;11.566;2023-04-05T10:46:58;8.65;;;3.78;;
22144;SDS011;11238;48.730;11.566;2023-04-05T10:49:32;5.10;;;3.30;;
22144;SDS011;11238;48.730;11.566;2023-04-05T10:52:02;6.43;;;3.40;;
22144;SDS011;11238;48.730;11.566;2023-04-05T10:54:33;4.97;;;4.03;;
22144;SDS011;11238;48.730;11.566;2023-04-05T10:57:22;6.75;;;4.10;;
22144;SDS011;11238;48.730;11.566;2023-04-05T10:59:50;4.32;;;3.30;;
22144;SDS011;11238;48.730;11.566;2023-04-05T11:02:17;5.10;;;3.35;;
22144;SDS011;11238;48.730;11.566;2023-04-05T11:04:44;5.05;;;3.50;;
22144;SDS011;11238;48.730;11.566;2023-04-05T11:07:14;5.63;;;3.88;;
22144;SDS011;11238;48.730;11.566;2023-04-05T11:09:54;4.95;;;3.33;;
22144;SDS011;11238;48.730;11.566;2023-04-05T11:18:05;6.22;;;3.88;;
22144;SDS011;11238;48.730;11.566;2023-04-05T11:23:18;5.60;;;3.70;;
22144;SDS011;11238;48.730;11.566;2023-04-05T11:25:46;6.57;;;3.70;;
22144;SDS011;11238;48.730;11.566;2023-04-05T11:28:27;4.57;;;3.33;;
22144;SDS011;11238;48.730;11.566;2023-04-05T11:30:55;5.63;;;3.55;;
22144;SDS011;11238;48.730;11.566;2023-04-05T11:39:44;5.50;;;3.67;;
22144;SDS011;11238;48.730;11.566;2023-04-05T11:42:01;5.88;;;4.45;;
22144;SDS011;11238;48.730;11.566;2023-04-05T11:44:38;5.38;;;4.20;;
22144;SDS011;11238;48.730;11.566;2023-04-05T11:47:08;6.35;;;3.72;;
22144;SDS011;11238;48.730;11.566;2023-04-05T11:49:36;7.00;;;3.80;;
22144;SDS011;11238;48.730;11.566;2023-04-05T11:52:14;4.95;;;3.42;;
22144;SDS011;11238;48.730;11.566;2023-04-05T11:54:44;5.20;;;3.53;;
22144;SDS011;11238;48.730;11.566;2023-04-05T11:57:13;6.22;;;3.55;;
22144;SDS011;11238;48.730;11.566;2023-04-05T11:59:48;4.78;;;3.10;;
22144;SDS011;11238;48.730;11.566;2023-04-05T12:02:16;5.07;;;3.55;;
22144;SDS011;11238;48.730;11.566;2023-04-05T12:04:42;4.90;;;3.50;;
22144;SDS011;11238;48.730;11.566;2023-04-05T12:07:09;4.90;;;3.42;;
22144;SDS011;11238;48.730;11.566;2023-04-05T12:09:58;6.05;;;3.60;;
22144;SDS011;11238;48.730;11.566;2023-04-05T12:12:35;5.65;;;3.25;;
22144;SDS011;11238;48.730;11.566;2023-04-05T12:15:03;7.28;;;3.40;;
22144;SDS011;11238;48.730;11.566;2023-04-05T12:20:36;6.32;;;3.67;;
22144;SDS011;11238;48.730;11.566;2023-04-05T12:23:03;7.28;;;3.83;;
22144;SDS011;11238;48.730;11.566;2023-04-05T12:25:30;5.80;;;3.35;;
22144;SDS011;11238;48.730;11.566;2023-04-05T12:28:02;6.68;;;3.50;;
22144;SDS011;11238;48.730;11.566;2023-04-05T12:30:30;5.45;;;3.30;;
22144;SDS011;11238;48.730;11.566;2023-04-05T12:33:05;4.32;;;3.38;;
22144;SDS011;11238;48.730;11.566;2023-04-05T12:35:35;5.38;;;3.42;;
22144;SDS011;11238;48.730;11.566;2023-04-05T12:38:04;4.13;;;3.00;;
22144;SDS011;11238;48.730;11.566;2023-04-05T12:40:31;5.07;;;3.05;;
22144;SDS011;11238;48.730;11.566;2023-04-05T12:43:02;4.55;;;3.42;;
22144;SDS011;11238;48.730;11.566;2023-04-05T12:45:31;4.68;;;3.00;;
22144;SDS011;11238;48.730;11.566;2023-04-05T12:48:13;7.00;;;3.38;;
22144;SDS011;11238;48.730;11.566;2023-04-05T12:50:43;5.03;;;3.30;;
22144;SDS011;11238;48.730;11.566;2023-04-05T12:53:20;6.07;;;3.40;;
22144;SDS011;11238;48.730;11.566;2023-04-05T12:55:49;4.20;;;3.30;;
22144;SDS011;11238;48.730;11.566;2023-04-05T12:58:31;3.90;;;3.50;;
22144;SDS011;11238;48.730;11.566;2023-04-05T13:00:59;5.80;;;3.72;;
22144;SDS011;11238;48.730;11.566;2023-04-05T13:03:25;5.90;;;3.38;;
22144;SDS011;11238;48.730;11.566;2023-04-05T13:05:51;4.70;;;3.75;;
22144;SDS011;11238;48.730;11.566;2023-04-05T13:08:39;4.60;;;3.60;;
22144;SDS011;11238;48.730;11.566;2023-04-05T13:11:05;4.60;;;3.67;;
22144;SDS011;11238;48.730;11.566;2023-04-05T13:16:15;5.55;;;3.92;;
22144;SDS011;11238;48.730;11.566;2023-04-05T13:18:41;5.38;;;3.95;;
22144;SDS011;11238;48.730;11.566;2023-04-05T13:21:07;6.53;;;3.60;;
22144;SDS011;11238;48.730;11.566;2023-04-05T13:23:34;7.43;;;3.80;;
22144;SDS011;11238;48.730;11.566;2023-04-05T13:26:02;5.20;;;3.58;;
22144;SDS011;11238;48.730;11.566;2023-04-05T13:28:28;4.88;;;3.70;;
22144;SDS011;11238;48.730;11.566;2023-04-05T13:30:55;5.10;;;3.60;;
22144;SDS011;11238;48.730;11.566;2023-04-05T13:33:21;4.95;;;3.65;;
22144;SDS011;11238;48.730;11.566;2023-04-05T13:35:47;5.22;;;3.92;;
22144;SDS011;11238;48.730;11.566;2023-04-05T13:38:13;6.22;;;4.10;;
22144;SDS011;11238;48.730;11.566;2023-04-05T13:40:38;5.28;;;3.70;;
22144;SDS011;11238;48.730;11.566;2023-04-05T13:43:05;4.65;;;3.58;;
22144;SDS011;11238;48.730;11.566;2023-04-05T13:45:30;5.28;;;3.85;;
22144;SDS011;11238;48.730;11.566;2023-04-05T13:47:56;5.47;;;3.70;;
22144;SDS011;11238;48.730;11.566;2023-04-05T13:50:28;5.82;;;3.50;;
22144;SDS011;11238;48.730;11.566;2023-04-05T13:52:59;4.13;;;3.35;;
22144;SDS011;11238;48.730;11.566;2023-04-05T13:55:25;4.93;;;3.83;;
22144;SDS011;11238;48.730;11.566;2023-04-05T13:57:54;5.38;;;3.72;;
22144;SDS011;11238;48.730;11.566;2023-04-05T14:00:19;6.22;;;3.80;;
22144;SDS011;11238;48.730;11.566;2023-04-05T14:02:45;8.57;;;4.25;;
22144;SDS011;11238;48.730;11.566;2023-04-05T14:05:12;6.10;;;3.97;;
22144;SDS011;11238;48.730;11.566;2023-04-05T14:07:39;6.05;;;3.50;;
22144;SDS011;11238;48.730;11.566;2023-04-05T14:10:05;4.43;;;3.50;;
22144;SDS011;11238;48.730;11.566;2023-04-05T14:12:32;5.53;;;3.47;;
22144;SDS011;11238;48.730;11.566;2023-04-05T14:14:58;4.25;;;3.38;;
22144;SDS011;11238;48.730;11.566;2023-04-05T14:17:25;5.15;;;3.80;;
22144;SDS011;11238;48.730;11.566;2023-04-05T14:20:12;5.50;;;3.42;;
22144;SDS011;11238;48.730;11.566;2023-04-05T14:22:38;5.40;;;3.42;;
22144;SDS011;11238;48.730;11.566;2023-04-05T14:25:05;4.75;;;3.30;;
22144;SDS011;11238;48.730;11.566;2023-04-05T14:27:32;5.18;;;3.13;;
22144;SDS011;11238;48.730;11.566;2023-04-05T14:30:00;5.15;;;3.38;;
22144;SDS011;11238;48.730;11.566;2023-04-05T14:32:26;5.93;;;3.97;;
22144;SDS011;11238;48.730;11.566;2023-04-05T14:34:52;4.80;;;3.53;;
22144;SDS011;11238;48.730;11.566;2023-04-05T14:37:17;6.38;;;3.63;;
22144;SDS011;11238;48.730;11.566;2023-04-05T14:39:43;5.50;;;3.78;;
22144;SDS011;11238;48.730;11.566;2023-04-05T14:42:09;4.57;;;3.13;;
22144;SDS011;11238;48.730;11.566;2023-04-05T14:44:34;4.10;;;3.10;;
22144;SDS011;11238;48.730;11.566;2023-04-05T14:47:01;7.22;;;3.55;;
22144;SDS011;11238;48.730;11.566;2023-04-05T14:49:26;4.18;;;3.28;;
22144;SDS011;11238;48.730;11.566;2023-04-05T14:51:52;3.70;;;3.30;;
22144;SDS011;11238;48.730;11.566;2023-04-05T14:54:18;5.53;;;3.67;;
22144;SDS011;11238;48.730;11.566;2023-04-05T14:56:44;5.10;;;3.95;;
22144;SDS011;11238;48.730;11.566;2023-04-05T14:59:10;5.07;;;3.58;;
22144;SDS011;11238;48.730;11.566;2023-04-05T15:01:36;5.57;;;3.78;;
22144;SDS011;11238;48.730;11.566;2023-04-05T15:04:03;4.95;;;3.65;;
22144;SDS011;11238;48.730;11.566;2023-04-05T15:06:29;5.07;;;3.60;;
22144;SDS011;11238;48.730;11.566;2023-04-05T15:08:55;4.43;;;3.35;;
22144;SDS011;11238;48.730;11.566;2023-04-05T15:11:21;7.30;;;3.67;;
22144;SDS011;11238;48.730;11.566;2023-04-05T15:13:47;4.22;;;3.35;;
22144;SDS011;11238;48.730;11.566;2023-04-05T15:16:14;5.75;;;3.75;;
22144;SDS011;11238;48.730;11.566;2023-04-05T15:18:40;6.45;;;3.65;;
22144;SDS011;11238;48.730;11.566;2023-04-05T15:21:27;5.40;;;3.60;;
22144;SDS011;11238;48.730;11.566;2023-04-05T15:23:53;7.13;;;3.95;;
22144;SDS011;11238;48.730;11.566;2023-04-05T15:26:41;4.40;;;3.40;;